Time;durP1;ratioP1;P1;durP2;ratioP2;P2;SDS_P1;SDS_P2;PMS_P1;PMS_P2;Temp;Humidity;BMP_temperature;BMP_pressure;BME280_temperature;BME280_humidity;BME280_pressure;Samples;Min_cycle;Max_cycle;Signal;HPM_P1;HPM_P2
2022/03/17 00:00:57;;;;;;;28.92;23.40;;;;;;;;;;4943540;28;20043;-70
2022/03/17 00:03:23;;;;;;;29.58;23.20;;;;;;;;;;4951620;28;20075;-69
2022/03/17 00:05:50;;;;;;;33.92;25.30;;;;;;;;;;4949517;28;20528;-70
2022/03/17 00:08:16;;;;;;;31.80;24.10;;;;;;;;;;4947442;28;20035;-69
2022/03/17 00:10:42;;;;;;;31.65;23.92;;;;;;;;;;4956012;28;20043;-70
2022/03/17 00:13:09;;;;;;;31.95;23.33;;;;;;;;;;4956499;29;20078;-70
2022/03/17 00:15:35;;;;;;;34.28;24.13;;;;;;;;;;4937987;28;20044;-69
2022/03/17 00:18:01;;;;;;;30.88;24.08;;;;;;;;;;4951979;28;20079;-69
2022/03/17 00:20:27;;;;;;;35.05;24.40;;;;;;;;;;4952424;28;20050;-70
2022/03/17 00:22:53;;;;;;;32.95;25.80;;;;;;;;;;4951452;28;20054;-71
2022/03/17 00:25:19;;;;;;;33.60;25.13;;;;;;;;;;4954257;28;20055;-70
2022/03/17 00:27:45;;;;;;;32.60;24.48;;;;;;;;;;4950345;28;20127;-70
2022/03/17 00:30:11;;;;;;;32.95;23.92;;;;;;;;;;4953779;28;20095;-71
2022/03/17 00:32:38;;;;;;;33.15;25.10;;;;;;;;;;4937002;28;20051;-70
2022/03/17 00:37:49;;;;;;;34.13;25.05;;;;;;;;;;4953724;28;20047;-69
2022/03/17 00:40:15;;;;;;;31.33;23.60;;;;;;;;;;4954658;28;20054;-70
2022/03/17 00:42:41;;;;;;;32.85;23.98;;;;;;;;;;4954016;28;20183;-70
2022/03/17 00:45:11;;;;;;;34.15;25.05;;;;;;;;;;4955816;29;20485;-70
2022/03/17 00:47:37;;;;;;;31.45;23.70;;;;;;;;;;4937942;28;20075;-70
2022/03/17 00:50:04;;;;;;;32.13;24.90;;;;;;;;;;4954859;28;20417;-70
2022/03/17 00:52:30;;;;;;;33.20;23.27;;;;;;;;;;4955341;28;20039;-69
2022/03/17 00:54:57;;;;;;;32.85;24.77;;;;;;;;;;4955159;28;20503;-71
2022/03/17 00:57:23;;;;;;;31.13;24.25;;;;;;;;;;4955428;29;20043;-70
2022/03/17 00:59:49;;;;;;;33.83;25.95;;;;;;;;;;4954617;28;20089;-70
2022/03/17 01:02:15;;;;;;;30.90;24.27;;;;;;;;;;4954766;28;20040;-70
2022/03/17 01:04:42;;;;;;;32.35;24.77;;;;;;;;;;4955470;28;20457;-70
2022/03/17 01:07:08;;;;;;;31.77;24.35;;;;;;;;;;4954945;28;20047;-69
2022/03/17 01:09:34;;;;;;;31.40;24.10;;;;;;;;;;4955514;28;20043;-69
2022/03/17 01:12:00;;;;;;;33.42;24.02;;;;;;;;;;4955096;28;20035;-69
2022/03/17 01:14:27;;;;;;;32.58;23.75;;;;;;;;;;4955332;28;20047;-70
2022/03/17 01:16:53;;;;;;;32.30;25.52;;;;;;;;;;4937864;28;20079;-70
2022/03/17 01:19:19;;;;;;;33.40;25.17;;;;;;;;;;4955231;28;20051;-69
2022/03/17 01:21:48;;;;;;;34.88;25.33;;;;;;;;;;4954365;28;20489;-70
2022/03/17 01:24:15;;;;;;;32.85;23.35;;;;;;;;;;4946255;28;20047;-70
2022/03/17 01:26:41;;;;;;;35.83;25.67;;;;;;;;;;4950701;28;20075;-70
2022/03/17 01:29:07;;;;;;;31.27;24.25;;;;;;;;;;4952529;28;20126;-71
2022/03/17 01:31:33;;;;;;;30.17;23.35;;;;;;;;;;4958484;28;20497;-71
2022/03/17 01:33:59;;;;;;;33.88;24.77;;;;;;;;;;4947346;28;20048;-69
2022/03/17 01:36:26;;;;;;;33.33;25.55;;;;;;;;;;4954870;29;20497;-70
2022/03/17 01:38:52;;;;;;;34.50;25.10;;;;;;;;;;4933518;28;20039;-70
2022/03/17 01:41:18;;;;;;;38.00;25.73;;;;;;;;;;4936460;28;20039;-70
2022/03/17 01:43:44;;;;;;;34.83;24.40;;;;;;;;;;4944218;28;20518;-70
2022/03/17 01:46:14;;;;;;;33.35;25.25;;;;;;;;;;4938011;28;20126;-70
2022/03/17 01:48:40;;;;;;;34.78;25.38;;;;;;;;;;4945206;28;20058;-70
2022/03/17 01:51:06;;;;;;;38.13;26.42;;;;;;;;;;4950041;28;20062;-70
2022/03/17 01:53:32;;;;;;;32.67;24.40;;;;;;;;;;4937556;28;20587;-70
2022/03/17 01:55:58;;;;;;;34.38;25.50;;;;;;;;;;4910900;29;20047;-70
2022/03/17 01:58:25;;;;;;;35.20;25.83;;;;;;;;;;4943231;28;20044;-70
2022/03/17 02:00:51;;;;;;;33.53;24.92;;;;;;;;;;4963677;28;20047;-70
2022/03/17 02:03:18;;;;;;;31.35;24.92;;;;;;;;;;4947218;28;20446;-70
2022/03/17 02:05:44;;;;;;;32.65;25.38;;;;;;;;;;4928914;29;20040;-70
2022/03/17 02:08:13;;;;;;;34.05;25.95;;;;;;;;;;4949728;28;20050;-71
2022/03/17 02:13:24;;;;;;;33.03;26.02;;;;;;;;;;4951371;28;20075;-70
2022/03/17 02:15:56;;;;;;;33.08;25.33;;;;;;;;;;4953039;28;20067;-70
2022/03/17 02:18:23;;;;;;;34.70;25.30;;;;;;;;;;4938065;28;20497;-70
2022/03/17 02:20:50;;;;;;;34.20;25.38;;;;;;;;;;4962251;28;20769;-70
2022/03/17 02:26:02;;;;;;;32.38;24.92;;;;;;;;;;4939950;28;20043;-70
2022/03/17 02:28:29;;;;;;;35.72;26.27;;;;;;;;;;4953626;28;20130;-70
2022/03/17 02:30:56;;;;;;;35.35;24.75;;;;;;;;;;4958060;28;20893;-70
2022/03/17 02:33:23;;;;;;;32.80;24.55;;;;;;;;;;4925414;28;20050;-70
2022/03/17 02:35:51;;;;;;;31.88;25.50;;;;;;;;;;4956978;28;20043;-70
2022/03/17 02:38:18;;;;;;;33.50;25.48;;;;;;;;;;4935145;29;20048;-71
2022/03/17 02:40:45;;;;;;;35.60;25.25;;;;;;;;;;4943004;28;20071;-70
2022/03/17 02:43:14;;;;;;;35.38;25.80;;;;;;;;;;4954159;28;20048;-70
2022/03/17 02:45:40;;;;;;;33.67;25.33;;;;;;;;;;4950408;28;20047;-70
2022/03/17 02:48:07;;;;;;;33.63;24.98;;;;;;;;;;4951770;28;20047;-70
2022/03/17 02:50:34;;;;;;;32.80;25.85;;;;;;;;;;4951158;28;20054;-70
2022/03/17 02:53:05;;;;;;;33.45;26.10;;;;;;;;;;4952825;28;20046;-70
2022/03/17 02:55:32;;;;;;;33.20;26.70;;;;;;;;;;4953776;28;20070;-70
2022/03/17 02:57:58;;;;;;;35.03;26.15;;;;;;;;;;4941322;28;20043;-70
2022/03/17 03:00:24;;;;;;;32.88;25.50;;;;;;;;;;4950970;28;20035;-70
2022/03/17 03:02:50;;;;;;;32.05;25.92;;;;;;;;;;4948928;28;20761;-70
2022/03/17 03:05:16;;;;;;;35.20;25.77;;;;;;;;;;4954566;28;20042;-70
2022/03/17 03:07:42;;;;;;;35.05;26.13;;;;;;;;;;4952522;28;20055;-70
2022/03/17 03:10:08;;;;;;;34.42;26.15;;;;;;;;;;4946448;28;20051;-70
2022/03/17 03:12:35;;;;;;;33.40;24.85;;;;;;;;;;4956660;28;20448;-70
2022/03/17 03:15:01;;;;;;;32.40;25.88;;;;;;;;;;4957143;28;20051;-70
2022/03/17 03:17:27;;;;;;;33.17;26.05;;;;;;;;;;4935386;28;20500;-70
2022/03/17 03:19:53;;;;;;;35.13;26.42;;;;;;;;;;4932897;29;20130;-70
2022/03/17 03:22:19;;;;;;;32.25;25.27;;;;;;;;;;4954172;28;20464;-70
2022/03/17 03:24:45;;;;;;;31.60;24.40;;;;;;;;;;4954791;28;20397;-70
2022/03/17 03:27:12;;;;;;;34.78;24.85;;;;;;;;;;4956672;28;20055;-71
2022/03/17 03:29:38;;;;;;;32.63;25.80;;;;;;;;;;4955183;28;20134;-70
2022/03/17 03:32:04;;;;;;;34.28;25.88;;;;;;;;;;4956168;28;20126;-70
2022/03/17 03:34:30;;;;;;;31.75;24.92;;;;;;;;;;4954236;28;20047;-70
2022/03/17 03:39:42;;;;;;;34.83;26.05;;;;;;;;;;4944670;28;20047;-70
2022/03/17 03:42:08;;;;;;;31.27;25.30;;;;;;;;;;4957163;29;20050;-70
2022/03/17 03:44:34;;;;;;;37.10;25.60;;;;;;;;;;4953966;28;20054;-71
2022/03/17 03:47:00;;;;;;;35.20;26.98;;;;;;;;;;4953255;28;20046;-70
2022/03/17 03:49:26;;;;;;;31.10;25.67;;;;;;;;;;4956184;28;20070;-71
2022/03/17 03:51:53;;;;;;;33.95;26.05;;;;;;;;;;4956403;28;20066;-70
2022/03/17 03:54:22;;;;;;;31.65;25.10;;;;;;;;;;4964037;28;20043;-71
2022/03/17 03:56:52;;;;;;;31.58;26.05;;;;;;;;;;4941534;28;20126;-71
2022/03/17 03:59:20;;;;;;;31.58;25.15;;;;;;;;;;4955238;28;20042;-71
2022/03/17 04:01:46;;;;;;;32.55;25.45;;;;;;;;;;4947808;28;20044;-71
2022/03/17 04:04:17;;;;;;;34.78;26.20;;;;;;;;;;4955340;28;20489;-71
2022/03/17 04:07:01;;;;;;;35.78;25.17;;;;;;;;;;4936642;28;20059;-70
2022/03/17 04:09:33;;;;;;;29.77;25.98;;;;;;;;;;4922470;28;20101;-70
2022/03/17 04:11:59;;;;;;;36.08;25.83;;;;;;;;;;4956384;29;20051;-70
2022/03/17 04:14:25;;;;;;;32.67;25.23;;;;;;;;;;4962435;28;20497;-70
2022/03/17 04:16:51;;;;;;;33.83;26.98;;;;;;;;;;4954346;28;20046;-71
2022/03/17 04:19:17;;;;;;;32.13;26.30;;;;;;;;;;4949607;28;20557;-70
2022/03/17 04:21:52;;;;;;;31.55;25.63;;;;;;;;;;4946756;28;20371;-70
2022/03/17 04:24:19;;;;;;;32.45;27.05;;;;;;;;;;4951424;28;20404;-70
2022/03/17 04:26:45;;;;;;;36.38;26.40;;;;;;;;;;4956355;28;20049;-70
2022/03/17 04:29:12;;;;;;;32.72;27.00;;;;;;;;;;4954828;28;20062;-70
2022/03/17 04:31:39;;;;;;;35.55;26.17;;;;;;;;;;4955190;28;20117;-70
2022/03/17 04:34:05;;;;;;;31.75;26.67;;;;;;;;;;4937436;28;20054;-70
2022/03/17 04:36:31;;;;;;;32.15;26.90;;;;;;;;;;4955199;28;20130;-69
2022/03/17 04:38:57;;;;;;;33.67;27.17;;;;;;;;;;4962146;28;20187;-70
2022/03/17 04:41:23;;;;;;;33.47;26.45;;;;;;;;;;4964782;28;20050;-69
2022/03/17 04:43:49;;;;;;;34.17;26.33;;;;;;;;;;4938909;29;20058;-70
2022/03/17 04:46:16;;;;;;;36.08;26.95;;;;;;;;;;4955305;28;20055;-70
2022/03/17 04:48:42;;;;;;;33.67;27.30;;;;;;;;;;4954738;28;20098;-70
2022/03/17 04:51:08;;;;;;;35.47;27.40;;;;;;;;;;4949811;28;20047;-71
2022/03/17 04:53:34;;;;;;;33.97;27.40;;;;;;;;;;4951224;28;20094;-70
2022/03/17 04:56:00;;;;;;;35.53;29.15;;;;;;;;;;4948867;28;20747;-70
2022/03/17 04:58:28;;;;;;;34.20;27.40;;;;;;;;;;4948324;28;20138;-70
2022/03/17 05:00:55;;;;;;;36.20;28.17;;;;;;;;;;4947573;28;20107;-70
2022/03/17 05:03:21;;;;;;;36.53;29.63;;;;;;;;;;4954132;28;20047;-70
2022/03/17 05:05:47;;;;;;;37.65;31.73;;;;;;;;;;4952603;28;20046;-70
2022/03/17 05:08:13;;;;;;;46.45;33.65;;;;;;;;;;4945381;28;20074;-70
2022/03/17 05:10:40;;;;;;;43.85;33.60;;;;;;;;;;4950670;28;20101;-71
2022/03/17 05:13:07;;;;;;;41.38;35.65;;;;;;;;;;4937086;29;20051;-70
2022/03/17 05:15:34;;;;;;;40.58;34.22;;;;;;;;;;4948021;29;20035;-70
2022/03/17 05:18:00;;;;;;;43.92;36.08;;;;;;;;;;4954260;28;20065;-71
2022/03/17 05:20:26;;;;;;;48.22;36.97;;;;;;;;;;4954852;28;20063;-70
2022/03/17 05:22:52;;;;;;;44.97;37.80;;;;;;;;;;4946619;28;20043;-71
2022/03/17 05:25:19;;;;;;;50.17;40.13;;;;;;;;;;4962013;28;20039;-70
2022/03/17 05:27:45;;;;;;;52.90;41.03;;;;;;;;;;4919554;29;20062;-70
2022/03/17 05:30:13;;;;;;;51.13;40.38;;;;;;;;;;4954639;28;20047;-70
2022/03/17 05:32:39;;;;;;;51.53;41.38;;;;;;;;;;4954625;28;20050;-71
2022/03/17 05:35:06;;;;;;;49.63;40.95;;;;;;;;;;4942429;29;20049;-70
2022/03/17 05:37:32;;;;;;;55.88;42.85;;;;;;;;;;4954455;28;20043;-71
2022/03/17 05:39:58;;;;;;;54.92;42.90;;;;;;;;;;4947899;28;20166;-70
2022/03/17 05:42:24;;;;;;;54.00;41.90;;;;;;;;;;4931852;29;20533;-70
2022/03/17 05:44:50;;;;;;;60.38;45.20;;;;;;;;;;4954819;28;20126;-70
2022/03/17 05:47:17;;;;;;;54.58;42.20;;;;;;;;;;4954719;28;20066;-70
2022/03/17 05:49:43;;;;;;;52.25;39.05;;;;;;;;;;4943802;28;20051;-70
2022/03/17 05:52:09;;;;;;;56.13;40.72;;;;;;;;;;4953108;28;20039;-70
2022/03/17 05:54:35;;;;;;;41.90;31.25;;;;;;;;;;4937024;29;20039;-70
2022/03/17 05:57:01;;;;;;;17.95;12.10;;;;;;;;;;4936271;28;20073;-69
2022/03/17 05:59:27;;;;;;;11.63;9.07;;;;;;;;;;4952020;28;20062;-69
2022/03/17 06:01:53;;;;;;;10.00;7.70;;;;;;;;;;4954511;28;20047;-70
2022/03/17 06:04:22;;;;;;;10.32;7.43;;;;;;;;;;4905725;29;20048;-70
2022/03/17 06:06:50;;;;;;;8.85;7.10;;;;;;;;;;4951918;28;20047;-70
2022/03/17 06:09:16;;;;;;;8.95;7.25;;;;;;;;;;4959419;28;20047;-70
2022/03/17 06:11:42;;;;;;;10.07;7.90;;;;;;;;;;4952647;28;20066;-69
2022/03/17 06:14:08;;;;;;;9.50;8.27;;;;;;;;;;4954203;29;20465;-69
2022/03/17 06:16:36;;;;;;;12.98;8.45;;;;;;;;;;4952707;28;20051;-69
2022/03/17 06:19:02;;;;;;;11.35;8.50;;;;;;;;;;4951019;28;20066;-69
2022/03/17 06:21:28;;;;;;;12.60;9.32;;;;;;;;;;4952964;28;20096;-68
2022/03/17 06:23:54;;;;;;;13.93;9.18;;;;;;;;;;4946052;28;20390;-68
2022/03/17 06:26:20;;;;;;;16.80;10.23;;;;;;;;;;4936212;28;20050;-69
2022/03/17 06:28:46;;;;;;;19.75;10.48;;;;;;;;;;4954288;28;20108;-69
2022/03/17 06:31:12;;;;;;;16.52;10.55;;;;;;;;;;4954126;29;20055;-69
2022/03/17 06:33:39;;;;;;;18.63;11.23;;;;;;;;;;4948777;28;20055;-68
2022/03/17 06:36:05;;;;;;;16.38;10.90;;;;;;;;;;4953363;28;20058;-69
2022/03/17 06:38:31;;;;;;;16.95;10.68;;;;;;;;;;4959273;28;20042;-69
2022/03/17 06:40:57;;;;;;;18.88;11.23;;;;;;;;;;4954049;28;20039;-69
2022/03/17 06:43:23;;;;;;;15.88;10.80;;;;;;;;;;4951001;28;20098;-69
2022/03/17 06:45:50;;;;;;;18.10;10.80;;;;;;;;;;4949912;28;20051;-70
2022/03/17 06:48:16;;;;;;;18.50;10.25;;;;;;;;;;4957529;28;20051;-69
2022/03/17 06:50:42;;;;;;;17.58;10.45;;;;;;;;;;4957025;28;20061;-69
2022/03/17 06:53:08;;;;;;;20.67;9.85;;;;;;;;;;4956956;28;20106;-70
2022/03/17 06:55:34;;;;;;;17.13;9.77;;;;;;;;;;4952803;28;20040;-70
2022/03/17 06:58:00;;;;;;;20.58;10.18;;;;;;;;;;4949743;28;20042;-70
2022/03/17 07:00:26;;;;;;;17.83;9.02;;;;;;;;;;4946625;28;20047;-69
2022/03/17 07:02:52;;;;;;;20.35;9.30;;;;;;;;;;4949131;28;20046;-69
2022/03/17 07:05:18;;;;;;;18.27;8.88;;;;;;;;;;4958336;28;20047;-69
2022/03/17 07:07:45;;;;;;;19.13;8.38;;;;;;;;;;4958988;28;20394;-69
2022/03/17 07:10:11;;;;;;;18.05;7.70;;;;;;;;;;4956362;28;20441;-70
2022/03/17 07:12:38;;;;;;;16.98;8.25;;;;;;;;;;4957254;28;20050;-69
2022/03/17 07:15:07;;;;;;;19.98;7.63;;;;;;;;;;4940255;29;20066;-69
2022/03/17 07:17:39;;;;;;;14.88;7.55;;;;;;;;;;4951071;28;20478;-69
2022/03/17 07:20:07;;;;;;;14.50;6.18;;;;;;;;;;4947863;29;20055;-69
2022/03/17 07:22:33;;;;;;;14.75;6.82;;;;;;;;;;4956291;28;20485;-69
2022/03/17 07:24:59;;;;;;;15.23;5.95;;;;;;;;;;4954608;28;20090;-69
2022/03/17 07:27:25;;;;;;;15.75;5.20;;;;;;;;;;4953395;28;20402;-70
2022/03/17 07:29:51;;;;;;;15.93;5.40;;;;;;;;;;4955943;29;20132;-69
2022/03/17 07:32:22;;;;;;;15.10;4.80;;;;;;;;;;4951780;29;20079;-69
2022/03/17 07:34:49;;;;;;;11.40;4.18;;;;;;;;;;4956524;28;20464;-70
2022/03/17 07:37:15;;;;;;;13.98;4.53;;;;;;;;;;4956935;29;20074;-69
2022/03/17 07:39:42;;;;;;;14.07;4.90;;;;;;;;;;4956496;29;20043;-69
2022/03/17 07:42:08;;;;;;;13.00;4.30;;;;;;;;;;4955636;28;20040;-69
2022/03/17 07:44:37;;;;;;;12.10;4.00;;;;;;;;;;4956385;28;20705;-70
2022/03/17 07:47:04;;;;;;;16.52;4.45;;;;;;;;;;4950635;28;20047;-69
2022/03/17 07:49:31;;;;;;;13.52;3.63;;;;;;;;;;4956565;28;20147;-69
2022/03/17 07:51:57;;;;;;;15.18;3.95;;;;;;;;;;4955610;28;20417;-70
2022/03/17 07:54:23;;;;;;;15.35;3.92;;;;;;;;;;4956278;28;20417;-69
2022/03/17 07:56:49;;;;;;;14.27;3.75;;;;;;;;;;4939476;29;20051;-70
2022/03/17 07:59:19;;;;;;;15.38;3.83;;;;;;;;;;4956519;28;20175;-69
2022/03/17 08:01:45;;;;;;;15.20;3.95;;;;;;;;;;4956768;29;20047;-69
2022/03/17 08:04:11;;;;;;;12.35;3.22;;;;;;;;;;4956692;28;20039;-70
2022/03/17 08:06:37;;;;;;;12.50;2.88;;;;;;;;;;4956400;28;20405;-69
2022/03/17 08:09:03;;;;;;;13.70;2.80;;;;;;;;;;4947359;28;20051;-69
2022/03/17 08:11:29;;;;;;;13.23;2.22;;;;;;;;;;4938077;29;20272;-69
2022/03/17 08:13:55;;;;;;;16.80;2.67;;;;;;;;;;4936214;29;20058;-69
2022/03/17 08:16:21;;;;;;;10.32;2.05;;;;;;;;;;4954986;29;20043;-69
2022/03/17 08:18:49;;;;;;;9.50;1.90;;;;;;;;;;4956212;29;20067;-68
2022/03/17 08:21:15;;;;;;;12.77;2.00;;;;;;;;;;4956138;29;20413;-69
2022/03/17 08:23:41;;;;;;;10.88;1.90;;;;;;;;;;4954924;29;20043;-69
2022/03/17 08:26:07;;;;;;;10.57;2.10;;;;;;;;;;4939104;29;20126;-68
2022/03/17 08:28:34;;;;;;;9.43;1.70;;;;;;;;;;4954758;29;20504;-69
2022/03/17 08:31:00;;;;;;;10.95;1.90;;;;;;;;;;4944745;29;20055;-68
2022/03/17 08:33:26;;;;;;;12.07;1.88;;;;;;;;;;4955672;29;20457;-69
2022/03/17 08:35:52;;;;;;;12.95;2.20;;;;;;;;;;4955784;29;20075;-70
2022/03/17 08:38:20;;;;;;;13.55;2.22;;;;;;;;;;4943511;28;20093;-70
2022/03/17 08:40:46;;;;;;;12.80;2.05;;;;;;;;;;4955985;29;20058;-70
2022/03/17 08:43:12;;;;;;;9.13;1.85;;;;;;;;;;4955226;29;20040;-70
2022/03/17 08:51:12;;;;;;;15.38;2.30;;;;;;;;;;4938662;29;20458;-69
2022/03/17 08:53:38;;;;;;;11.52;1.83;;;;;;;;;;4937134;29;20047;-69
2022/03/17 08:56:05;;;;;;;16.70;2.80;;;;;;;;;;4955504;29;20051;-69
2022/03/17 08:58:31;;;;;;;14.63;2.33;;;;;;;;;;4954311;29;20047;-69
2022/03/17 09:01:00;;;;;;;13.50;2.22;;;;;;;;;;4955466;29;20047;-71
2022/03/17 09:03:26;;;;;;;14.82;2.13;;;;;;;;;;4954045;28;20501;-69
2022/03/17 09:05:52;;;;;;;17.85;2.35;;;;;;;;;;4937341;29;20134;-70
2022/03/17 09:08:19;;;;;;;15.77;2.08;;;;;;;;;;4954229;29;20086;-70
2022/03/17 09:10:46;;;;;;;13.93;2.80;;;;;;;;;;4952375;29;20043;-69
2022/03/17 09:13:13;;;;;;;13.30;2.38;;;;;;;;;;4952956;29;20079;-69
2022/03/17 09:15:42;;;;;;;21.55;3.40;;;;;;;;;;4953326;29;20055;-69
2022/03/17 09:18:09;;;;;;;17.92;2.90;;;;;;;;;;4949333;29;20086;-70
2022/03/17 09:20:36;;;;;;;18.33;2.33;;;;;;;;;;4954302;29;20530;-69
2022/03/17 09:23:02;;;;;;;22.30;2.83;;;;;;;;;;4943831;28;20119;-69
2022/03/17 09:25:29;;;;;;;17.02;2.05;;;;;;;;;;4967224;28;20455;-70
2022/03/17 09:27:55;;;;;;;20.83;2.67;;;;;;;;;;4936922;29;20409;-69
2022/03/17 09:30:21;;;;;;;14.20;2.40;;;;;;;;;;4954016;29;20488;-69
2022/03/17 09:32:47;;;;;;;15.02;2.55;;;;;;;;;;4937763;29;20051;-68
2022/03/17 09:35:14;;;;;;;17.67;2.80;;;;;;;;;;4954598;29;20043;-69
2022/03/17 09:37:40;;;;;;;17.20;2.60;;;;;;;;;;4954757;29;20049;-70
2022/03/17 09:40:09;;;;;;;15.75;2.30;;;;;;;;;;4951241;29;20074;-69
2022/03/17 09:42:36;;;;;;;17.90;3.17;;;;;;;;;;4949022;29;20046;-69
2022/03/17 09:45:03;;;;;;;19.33;2.60;;;;;;;;;;4953386;29;20511;-68
2022/03/17 09:47:33;;;;;;;15.65;2.40;;;;;;;;;;4935928;29;20051;-69
2022/03/17 09:50:00;;;;;;;15.60;2.55;;;;;;;;;;4941504;29;20040;-69
2022/03/17 09:52:27;;;;;;;17.35;2.83;;;;;;;;;;4940778;29;20382;-69
2022/03/17 09:54:53;;;;;;;14.73;2.70;;;;;;;;;;4953345;28;20050;-70
2022/03/17 09:57:20;;;;;;;17.85;2.92;;;;;;;;;;4925634;29;20056;-69
2022/03/17 09:59:50;;;;;;;18.85;3.05;;;;;;;;;;4953667;29;20043;-69
2022/03/17 10:02:16;;;;;;;17.60;2.72;;;;;;;;;;4954100;29;20051;-68
2022/03/17 10:04:44;;;;;;;13.93;2.38;;;;;;;;;;4956433;28;20381;-69
2022/03/17 10:07:11;;;;;;;16.27;2.42;;;;;;;;;;4936934;29;20051;-69
2022/03/17 10:09:37;;;;;;;14.55;2.50;;;;;;;;;;4954604;29;20043;-70
2022/03/17 10:12:04;;;;;;;16.95;2.90;;;;;;;;;;4951884;29;20493;-69
2022/03/17 10:14:37;;;;;;;13.82;3.03;;;;;;;;;;4953089;28;20039;-70
2022/03/17 10:17:07;;;;;;;18.85;2.92;;;;;;;;;;4930844;29;20051;-69
2022/03/17 10:19:34;;;;;;;18.08;3.28;;;;;;;;;;4933677;29;20052;-69
2022/03/17 10:22:12;;;;;;;18.42;3.20;;;;;;;;;;4942021;29;20051;-70
2022/03/17 10:24:39;;;;;;;19.85;2.45;;;;;;;;;;4934431;29;20040;-70
2022/03/17 10:27:05;;;;;;;13.02;2.17;;;;;;;;;;4934163;29;20060;-70
2022/03/17 10:29:33;;;;;;;16.80;2.28;;;;;;;;;;4938367;29;20050;-69
2022/03/17 10:32:01;;;;;;;16.30;2.38;;;;;;;;;;4934786;29;20044;-69
2022/03/17 10:34:30;;;;;;;17.80;2.28;;;;;;;;;;4935225;29;20126;-69
2022/03/17 10:37:07;;;;;;;11.23;2.00;;;;;;;;;;4934665;29;20165;-70
2022/03/17 10:39:42;;;;;;;21.13;2.50;;;;;;;;;;4942796;29;20043;-69
2022/03/17 10:42:12;;;;;;;15.13;2.60;;;;;;;;;;4940165;29;20122;-70
2022/03/17 10:44:40;;;;;;;16.65;2.40;;;;;;;;;;4935352;29;20123;-69
2022/03/17 10:47:06;;;;;;;11.88;2.10;;;;;;;;;;4935762;29;20044;-69
2022/03/17 10:49:33;;;;;;;15.32;2.97;;;;;;;;;;4953516;29;20126;-69
2022/03/17 10:51:59;;;;;;;15.88;2.50;;;;;;;;;;4939565;29;20051;-69
2022/03/17 10:54:25;;;;;;;19.17;2.67;;;;;;;;;;4934785;29;20051;-68
2022/03/17 10:57:05;;;;;;;15.77;2.13;;;;;;;;;;4933223;29;20419;-69
2022/03/17 10:59:46;;;;;;;15.52;1.80;;;;;;;;;;4933184;29;20044;-69
2022/03/17 11:02:13;;;;;;;15.70;2.30;;;;;;;;;;4918712;29;20497;-70
2022/03/17 11:04:40;;;;;;;12.60;2.13;;;;;;;;;;4938957;29;20076;-69
2022/03/17 11:07:10;;;;;;;13.52;2.60;;;;;;;;;;4936372;29;20406;-68
2022/03/17 11:09:38;;;;;;;14.63;1.95;;;;;;;;;;4934396;29;20043;-69
2022/03/17 11:12:05;;;;;;;14.95;2.20;;;;;;;;;;4936039;29;20079;-69
2022/03/17 11:14:32;;;;;;;13.10;2.22;;;;;;;;;;4936622;29;20046;-70
2022/03/17 11:16:59;;;;;;;10.90;1.90;;;;;;;;;;4936870;29;20078;-71
2022/03/17 11:19:25;;;;;;;12.43;2.17;;;;;;;;;;4960775;28;20047;-70
2022/03/17 11:22:04;;;;;;;11.98;2.03;;;;;;;;;;4953532;29;20043;-70
2022/03/17 11:24:31;;;;;;;11.85;1.83;;;;;;;;;;4952733;28;20236;-70
2022/03/17 11:27:27;;;;;;;15.38;2.22;;;;;;;;;;4955287;28;20413;-67
2022/03/17 11:29:53;;;;;;;12.80;2.33;;;;;;;;;;4921812;29;20074;-70
2022/03/17 11:32:29;;;;;;;11.93;2.17;;;;;;;;;;4954408;28;20220;-70
2022/03/17 11:35:14;;;;;;;10.90;1.75;;;;;;;;;;4939604;29;20397;-70
2022/03/17 11:37:40;;;;;;;13.48;1.95;;;;;;;;;;4958090;28;20051;-70
2022/03/17 11:40:08;;;;;;;12.57;1.70;;;;;;;;;;4956837;28;20094;-70
2022/03/17 11:42:52;;;;;;;10.10;2.20;;;;;;;;;;4955267;28;20054;-70
2022/03/17 11:45:19;;;;;;;14.93;2.28;;;;;;;;;;4939556;29;20058;-70
2022/03/17 11:47:46;;;;;;;14.18;2.20;;;;;;;;;;4964085;28;20065;-70
2022/03/17 11:50:24;;;;;;;13.80;2.00;;;;;;;;;;4961307;28;20054;-70
2022/03/17 11:53:02;;;;;;;10.75;1.95;;;;;;;;;;4951267;28;20070;-70
2022/03/17 11:55:43;;;;;;;11.82;2.22;;;;;;;;;;4938364;29;20497;-69
2022/03/17 11:58:09;;;;;;;;;;;;;;;;;;4953261;28;20437;-70
2022/03/17 12:00:45;;;;;;;12.73;2.47;;;;;;;;;;4952275;29;19970;-70
2022/03/17 12:03:11;;;;;;;10.77;2.20;;;;;;;;;;4956438;29;20385;-69
2022/03/17 12:05:43;;;;;;;13.88;2.58;;;;;;;;;;4955782;28;20075;-69
2022/03/17 12:08:09;;;;;;;12.25;2.00;;;;;;;;;;4955431;28;20043;-69
2022/03/17 12:10:54;;;;;;;13.07;2.72;;;;;;;;;;4955580;29;20055;-69
2022/03/17 12:13:20;;;;;;;15.02;2.30;;;;;;;;;;4955290;29;20043;-69
2022/03/17 12:15:55;;;;;;;16.65;2.95;;;;;;;;;;4954403;28;20035;-69
2022/03/17 12:18:21;;;;;;;13.25;2.38;;;;;;;;;;4943293;29;20151;-68
2022/03/17 12:20:47;;;;;;;13.02;2.17;;;;;;;;;;4956167;29;20051;-68
2022/03/17 12:23:32;;;;;;;12.57;2.25;;;;;;;;;;4956120;29;20047;-69
2022/03/17 12:26:05;;;;;;;9.77;2.15;;;;;;;;;;4944691;28;20043;-69
2022/03/17 12:28:31;;;;;;;10.95;2.03;;;;;;;;;;4954118;28;20051;-69
2022/03/17 12:30:57;;;;;;;12.85;2.08;;;;;;;;;;4953102;29;20043;-70
2022/03/17 12:33:24;;;;;;;12.60;2.30;;;;;;;;;;4955433;28;20452;-69
2022/03/17 12:36:03;;;;;;;14.52;2.65;;;;;;;;;;4936482;29;20074;-70
2022/03/17 12:38:29;;;;;;;13.00;2.30;;;;;;;;;;4952389;29;20054;-69
2022/03/17 12:40:56;;;;;;;15.23;2.60;;;;;;;;;;4955819;29;20043;-70
2022/03/17 12:43:22;;;;;;;15.23;2.53;;;;;;;;;;4969903;28;20065;-70
2022/03/17 12:45:49;;;;;;;15.23;2.30;;;;;;;;;;4955422;29;20047;-70
2022/03/17 12:48:17;;;;;;;12.93;2.20;;;;;;;;;;4955413;29;20138;-70
2022/03/17 12:50:44;;;;;;;11.70;2.20;;;;;;;;;;4956397;29;20099;-70
2022/03/17 12:53:10;;;;;;;17.30;3.00;;;;;;;;;;4954087;28;20051;-70
2022/03/17 12:55:36;;;;;;;16.70;3.05;;;;;;;;;;4955746;29;20150;-70
2022/03/17 12:58:04;;;;;;;15.57;2.95;;;;;;;;;;4955574;29;20053;-70
2022/03/17 13:00:30;;;;;;;11.73;2.20;;;;;;;;;;4955745;28;20051;-70
2022/03/17 13:03:00;;;;;;;13.93;2.40;;;;;;;;;;4954954;28;20039;-70
2022/03/17 13:08:12;;;;;;;12.93;2.20;;;;;;;;;;4960330;28;20047;-70
2022/03/17 13:16:09;;;;;;;13.85;2.10;;;;;;;;;;4955590;28;20051;-70
2022/03/17 13:18:45;;;;;;;12.90;2.40;;;;;;;;;;4958191;28;20114;-70
2022/03/17 13:21:13;;;;;;;13.23;2.25;;;;;;;;;;4957130;28;20102;-70
2022/03/17 13:23:40;;;;;;;11.57;2.10;;;;;;;;;;4952229;28;20053;-70
2022/03/17 13:26:06;;;;;;;12.82;2.45;;;;;;;;;;4955413;29;20066;-70
2022/03/17 13:28:32;;;;;;;13.10;2.38;;;;;;;;;;4937839;29;20138;-70
2022/03/17 13:30:58;;;;;;;10.95;2.08;;;;;;;;;;4955052;29;20059;-70
2022/03/17 13:33:28;;;;;;;11.93;1.98;;;;;;;;;;4961071;28;20043;-69
2022/03/17 13:35:54;;;;;;;13.15;2.25;;;;;;;;;;4954682;28;20126;-70
2022/03/17 13:38:21;;;;;;;11.70;2.08;;;;;;;;;;4954314;29;20519;-70
2022/03/17 13:40:49;;;;;;;12.60;2.22;;;;;;;;;;4954399;29;20047;-69
2022/03/17 13:43:15;;;;;;;9.55;2.00;;;;;;;;;;4957891;28;20050;-69
2022/03/17 13:45:46;;;;;;;11.82;2.38;;;;;;;;;;4960699;28;20113;-69
2022/03/17 13:48:13;;;;;;;12.95;2.22;;;;;;;;;;4954130;28;20048;-69
2022/03/17 13:50:50;;;;;;;14.68;2.05;;;;;;;;;;4953869;29;20109;-70
2022/03/17 13:53:45;;;;;;;11.05;2.35;;;;;;;;;;4953955;28;20043;-70
2022/03/17 13:56:12;;;;;;;12.23;2.25;;;;;;;;;;4935640;28;20047;-70
2022/03/17 13:58:43;;;;;;;13.68;2.33;;;;;;;;;;4953438;28;20047;-71
2022/03/17 14:01:16;;;;;;;10.10;2.03;;;;;;;;;;4954270;29;20047;-70
2022/03/17 14:03:45;;;;;;;13.05;1.90;;;;;;;;;;4946307;29;20425;-70
2022/03/17 14:06:16;;;;;;;11.40;2.05;;;;;;;;;;4953486;28;20109;-71
2022/03/17 14:08:43;;;;;;;9.38;2.20;;;;;;;;;;4949800;28;20599;-70
2022/03/17 14:11:10;;;;;;;10.93;2.03;;;;;;;;;;4953048;28;20078;-70
2022/03/17 14:13:37;;;;;;;9.68;1.85;;;;;;;;;;4953011;29;20050;-70
2022/03/17 14:16:03;;;;;;;12.90;2.28;;;;;;;;;;4936345;29;20198;-71
2022/03/17 14:18:29;;;;;;;12.57;2.30;;;;;;;;;;4954384;28;20094;-70
2022/03/17 14:20:58;;;;;;;13.38;2.20;;;;;;;;;;4954186;29;20043;-70
2022/03/17 14:26:13;;;;;;;13.85;3.47;;;;;;;;;;4954097;29;20039;-70
2022/03/17 14:28:39;;;;;;;13.68;2.20;;;;;;;;;;4954714;28;20044;-70
2022/03/17 14:31:05;;;;;;;13.10;2.10;;;;;;;;;;4955067;28;20051;-70
2022/03/17 14:33:36;;;;;;;11.95;1.90;;;;;;;;;;4954560;29;20047;-70
2022/03/17 14:36:02;;;;;;;10.57;2.17;;;;;;;;;;4954364;29;20043;-69
2022/03/17 14:38:28;;;;;;;11.00;1.77;;;;;;;;;;4961931;28;20083;-69
2022/03/17 14:40:54;;;;;;;12.18;1.90;;;;;;;;;;4959666;28;20051;-70
2022/03/17 14:43:20;;;;;;;9.90;1.50;;;;;;;;;;4954224;29;20039;-69
2022/03/17 14:45:46;;;;;;;10.85;1.65;;;;;;;;;;4951842;28;20055;-70
2022/03/17 14:48:12;;;;;;;11.02;1.73;;;;;;;;;;4954177;29;20130;-69
2022/03/17 14:50:38;;;;;;;11.52;1.80;;;;;;;;;;4937084;29;20481;-70
2022/03/17 14:53:04;;;;;;;9.90;1.80;;;;;;;;;;4954243;29;20386;-70
2022/03/17 14:55:31;;;;;;;10.82;1.70;;;;;;;;;;4936759;29;20085;-71